Airfield :
LOGIN :

Register | Disclaimer

   EN    FR    IT 

 










Legend :    VFR   Marginal VFR   IFR   Intensive IFR   Very Intensive IFR
Visi :
Ceiling :
>= 8 km
>= 3000ft
5 to 8 km
1000 to 3000 ft
1500m to 5 km
500 to 1000 ft
800 to 1500m
200 to 500 ft
< 800m
< 200 ft
Symbols :   Thunderstorms  Fog  Heavy snow  Heavy precipitations  Wind > 20 kt
SIGMETs :     Misc.  Thunderstorms  Icing  Turbulence  Mountain Waves  Volcanic Ashes






- Airport Elevation : 14 ft
- IATA code : BRE


EDDW - Bremen Neuenland

CURRENT METAR :
  • 212350Z AUTO 03005KT CAVOK 04/01 Q1026

EXPIRED METARs :
  • 212320Z AUTO 02006KT CAVOK 04/01 Q1026
  • 212250Z AUTO 03006KT CAVOK 04/00 Q1027
  • 212220Z AUTO 04004KT CAVOK 04/01 Q1027
  • 212150Z AUTO 03005KT CAVOK 05/00 Q1027
  • 212120Z AUTO 02006KT CAVOK 05/00 Q1027
  • 212050Z AUTO 03005KT CAVOK 05/01 Q1026 NOSIG
  • 212020Z AUTO 03007KT CAVOK 05/01 Q1026 NOSIG
  • 211950Z AUTO 03005KT CAVOK 06/01 Q1026 NOSIG
  • 211920Z AUTO 03006KT CAVOK 06/02 Q1026 NOSIG

TAF TAF EDDW
Valid from the 22 at 00:00 until the 23 at 00:00 UTC


212300Z 2200/2224 03004KT 9999 FEW030
PROB30
TEMPO 2212/2217 SHRA SCT040CB



MET'MAP, your aeronautical weather chart ! - Copyright ORBIFLY December 2007 - Disclaimer

ORBIFLY MET'MAP TEAM :

Programming & Development : Alexandra Zaïnal
Original concept : Baudouin d'Aumeries
Technical & hardware support : Manuel Goepfert
Assistance : Marc-Olivier Méhu




SOURCES & CREDITS :

   NOAA